Time;durP1;ratioP1;P1;durP2;ratioP2;P2;SDS_P1;SDS_P2;PMS_P1;PMS_P2;Temp;Humidity;BMP_temperature;BMP_pressure;BME280_temperature;BME280_humidity;BME280_pressure;Samples;Min_cycle;Max_cycle;Signal;HPM_P1;HPM_P2
2023/08/07 00:00:30;;;;;;;14.02;6.88;;;;;;;;;;5023577;28;20211;-76
2023/08/07 00:02:56;;;;;;;12.25;6.70;;;;;;;;;;5022681;28;20206;-76
2023/08/07 00:05:21;;;;;;;12.10;6.68;;;;;;;;;;5011907;28;20273;-76
2023/08/07 00:07:47;;;;;;;11.25;7.10;;;;;;;;;;5024609;28;20680;-74
2023/08/07 00:10:13;;;;;;;10.52;7.00;;;;;;;;;;5024279;28;20193;-73
2023/08/07 00:12:38;;;;;;;13.15;7.03;;;;;;;;;;5022473;28;20584;-74
2023/08/07 00:15:04;;;;;;;10.98;7.13;;;;;;;;;;5010218;28;20193;-72
2023/08/07 00:17:29;;;;;;;16.13;7.25;;;;;;;;;;5016796;28;20237;-74
2023/08/07 00:19:55;;;;;;;14.45;8.13;;;;;;;;;;5028157;28;20265;-71
2023/08/07 00:22:20;;;;;;;16.00;8.18;;;;;;;;;;5020228;28;20589;-73
2023/08/07 00:24:46;;;;;;;17.55;7.88;;;;;;;;;;5023399;28;20289;-74
2023/08/07 00:27:12;;;;;;;15.70;8.23;;;;;;;;;;5030334;28;20222;-73
2023/08/07 00:29:38;;;;;;;9.93;7.40;;;;;;;;;;5022453;28;20182;-72
2023/08/07 00:32:03;;;;;;;14.45;7.53;;;;;;;;;;5031043;28;20175;-72
2023/08/07 00:34:29;;;;;;;16.83;7.60;;;;;;;;;;5008558;28;20205;-71
2023/08/07 00:36:55;;;;;;;12.73;8.02;;;;;;;;;;5029816;28;20583;-71
2023/08/07 00:39:21;;;;;;;14.00;7.47;;;;;;;;;;5029826;28;20238;-72
2023/08/07 00:41:46;;;;;;;13.32;7.10;;;;;;;;;;5024124;28;20230;-72
2023/08/07 00:44:12;;;;;;;11.30;7.30;;;;;;;;;;5026935;28;20190;-71
2023/08/07 00:46:39;;;;;;;11.15;7.00;;;;;;;;;;5027460;28;20191;-71
2023/08/07 00:49:05;;;;;;;12.50;6.70;;;;;;;;;;5028089;28;20297;-72
2023/08/07 00:51:31;;;;;;;8.38;6.32;;;;;;;;;;5015788;28;20196;-72
2023/08/07 00:53:56;;;;;;;11.60;6.22;;;;;;;;;;5025241;28;20643;-71
2023/08/07 00:56:23;;;;;;;9.70;6.50;;;;;;;;;;5024255;28;20209;-71
2023/08/07 00:58:50;;;;;;;11.05;5.60;;;;;;;;;;5027757;28;20264;-71
2023/08/07 01:01:15;;;;;;;7.88;5.65;;;;;;;;;;5029343;28;20186;-71
2023/08/07 01:03:40;;;;;;;7.15;4.38;;;;;;;;;;5027811;28;20220;-70
2023/08/07 01:06:06;;;;;;;6.65;4.75;;;;;;;;;;5030038;28;20248;-70
2023/08/07 01:08:32;;;;;;;10.85;5.47;;;;;;;;;;5028219;28;20213;-70
2023/08/07 01:11:21;;;;;;;7.88;5.70;;;;;;;;;;5030575;28;20194;-70
2023/08/07 01:14:10;;;;;;;7.30;5.18;;;;;;;;;;5018202;28;20273;-70
2023/08/07 01:16:58;;;;;;;7.70;4.70;;;;;;;;;;5016603;28;20658;-70
2023/08/07 01:19:25;;;;;;;7.38;4.40;;;;;;;;;;5013772;28;20233;-70
2023/08/07 01:22:05;;;;;;;10.68;4.30;;;;;;;;;;5027684;28;20297;-70
2023/08/07 01:24:31;;;;;;;7.60;4.55;;;;;;;;;;5026006;28;20193;-70
2023/08/07 01:27:00;;;;;;;11.15;4.15;;;;;;;;;;5028446;28;20194;-70
2023/08/07 01:29:35;;;;;;;5.53;3.80;;;;;;;;;;5030294;28;20258;-71
2023/08/07 01:32:05;;;;;;;12.40;4.45;;;;;;;;;;5031435;28;20194;-70
2023/08/07 01:34:31;;;;;;;8.23;4.03;;;;;;;;;;5033165;28;20196;-69
2023/08/07 01:36:58;;;;;;;9.60;4.18;;;;;;;;;;5031785;28;20182;-70
2023/08/07 01:39:24;;;;;;;11.70;4.28;;;;;;;;;;5032749;28;20587;-69
2023/08/07 01:41:50;;;;;;;6.68;3.67;;;;;;;;;;5031169;28;20234;-71
2023/08/07 01:44:16;;;;;;;10.18;4.10;;;;;;;;;;5031164;28;20237;-70
2023/08/07 01:46:41;;;;;;;13.85;3.95;;;;;;;;;;5030574;28;20190;-70
2023/08/07 01:49:06;;;;;;;14.40;4.28;;;;;;;;;;5024178;28;20598;-70
2023/08/07 01:51:32;;;;;;;9.50;3.60;;;;;;;;;;5029959;28;20226;-69
2023/08/07 01:53:57;;;;;;;10.65;3.65;;;;;;;;;;5026011;28;20186;-69
2023/08/07 01:56:23;;;;;;;10.38;3.10;;;;;;;;;;5031598;28;20190;-69
2023/08/07 01:58:48;;;;;;;10.93;3.22;;;;;;;;;;5031947;28;20273;-69
2023/08/07 02:01:13;;;;;;;12.73;2.97;;;;;;;;;;5031094;28;20223;-69
2023/08/07 02:03:39;;;;;;;12.07;3.05;;;;;;;;;;5019745;28;20222;-69
2023/08/07 02:06:04;;;;;;;8.45;3.13;;;;;;;;;;5032629;28;20572;-69
2023/08/07 02:08:29;;;;;;;11.90;3.40;;;;;;;;;;5028656;28;20201;-69
2023/08/07 02:10:55;;;;;;;16.85;3.92;;;;;;;;;;5033110;28;20204;-70
2023/08/07 02:13:20;;;;;;;12.80;3.38;;;;;;;;;;5029462;28;20201;-70
2023/08/07 02:15:45;;;;;;;14.25;3.40;;;;;;;;;;5031924;28;20194;-69
2023/08/07 02:18:11;;;;;;;17.48;3.92;;;;;;;;;;5036786;28;20554;-70
2023/08/07 02:20:36;;;;;;;10.10;4.13;;;;;;;;;;5032008;28;20232;-74
2023/08/07 02:23:02;;;;;;;14.30;3.45;;;;;;;;;;5024395;28;20221;-70
2023/08/07 02:25:27;;;;;;;12.30;3.00;;;;;;;;;;5032418;28;20194;-70
2023/08/07 02:27:52;;;;;;;15.88;2.90;;;;;;;;;;5023318;28;20654;-69
2023/08/07 02:30:18;;;;;;;12.20;3.15;;;;;;;;;;5018088;28;20193;-70
2023/08/07 02:32:44;;;;;;;14.90;2.95;;;;;;;;;;5032204;28;20194;-71
2023/08/07 02:35:10;;;;;;;10.88;2.42;;;;;;;;;;5031195;28;20588;-69
2023/08/07 02:37:36;;;;;;;7.97;2.30;;;;;;;;;;5025994;28;20259;-69
2023/08/07 02:40:01;;;;;;;7.47;2.67;;;;;;;;;;5025830;28;20225;-69
2023/08/07 02:42:26;;;;;;;8.30;2.38;;;;;;;;;;5029235;28;20249;-69
2023/08/07 02:44:52;;;;;;;12.15;2.67;;;;;;;;;;5025873;28;20232;-69
2023/08/07 02:47:17;;;;;;;9.15;2.47;;;;;;;;;;5031622;28;20194;-69
2023/08/07 02:49:42;;;;;;;9.77;2.70;;;;;;;;;;5030926;28;20186;-69
2023/08/07 02:52:08;;;;;;;8.10;2.58;;;;;;;;;;5030403;28;20244;-70
2023/08/07 02:54:33;;;;;;;11.55;2.58;;;;;;;;;;5015135;28;20191;-70
2023/08/07 02:56:59;;;;;;;9.60;2.25;;;;;;;;;;5031819;28;20190;-70
2023/08/07 02:59:24;;;;;;;8.02;2.13;;;;;;;;;;5029589;28;20189;-69
2023/08/07 03:01:50;;;;;;;5.93;1.88;;;;;;;;;;5031042;28;20630;-69
2023/08/07 03:04:15;;;;;;;6.20;2.15;;;;;;;;;;5021039;28;20328;-69
2023/08/07 03:06:40;;;;;;;9.00;1.65;;;;;;;;;;5029461;28;20229;-70
2023/08/07 03:09:06;;;;;;;4.07;1.30;;;;;;;;;;5030067;28;20276;-72
2023/08/07 03:11:31;;;;;;;7.20;1.20;;;;;;;;;;5027239;28;20773;-76
2023/08/07 03:13:57;;;;;;;5.88;1.40;;;;;;;;;;5028688;28;20623;-76
2023/08/07 03:16:22;;;;;;;6.97;1.17;;;;;;;;;;5019626;28;20198;-75
2023/08/07 03:18:48;;;;;;;2.65;1.10;;;;;;;;;;5031803;28;20558;-77
2023/08/07 03:21:13;;;;;;;2.58;0.80;;;;;;;;;;5032047;28;20537;-77
2023/08/07 03:23:39;;;;;;;5.07;1.17;;;;;;;;;;5030736;28;20222;-75
2023/08/07 03:26:09;;;;;;;3.83;1.05;;;;;;;;;;5032176;28;20186;-76
2023/08/07 03:28:36;;;;;;;5.97;1.45;;;;;;;;;;5023355;28;20531;-77
2023/08/07 03:31:02;;;;;;;5.28;1.38;;;;;;;;;;5031742;28;20217;-76
2023/08/07 03:33:27;;;;;;;4.28;1.48;;;;;;;;;;5022468;28;20187;-77
2023/08/07 03:35:52;;;;;;;6.28;1.70;;;;;;;;;;5031877;28;20268;-73
2023/08/07 03:38:18;;;;;;;3.97;1.40;;;;;;;;;;5021766;28;20569;-75
2023/08/07 03:40:44;;;;;;;7.90;2.42;;;;;;;;;;5029649;28;20197;-71
2023/08/07 03:43:09;;;;;;;5.38;1.60;;;;;;;;;;5027038;28;20229;-71
2023/08/07 03:45:34;;;;;;;4.97;1.80;;;;;;;;;;5030811;28;20217;-71
2023/08/07 03:48:00;;;;;;;6.18;2.15;;;;;;;;;;5011921;28;20532;-75
2023/08/07 03:50:26;;;;;;;8.50;2.10;;;;;;;;;;5021383;28;20774;-73
2023/08/07 03:52:51;;;;;;;7.10;2.28;;;;;;;;;;5021349;28;20194;-71
2023/08/07 03:55:16;;;;;;;7.60;2.17;;;;;;;;;;5030683;28;20186;-72
2023/08/07 03:57:42;;;;;;;8.25;2.53;;;;;;;;;;5028919;28;20277;-72
2023/08/07 04:00:08;;;;;;;8.70;2.33;;;;;;;;;;5027427;28;20213;-74
2023/08/07 04:02:33;;;;;;;7.75;2.10;;;;;;;;;;5029861;28;20654;-74
2023/08/07 04:04:58;;;;;;;9.25;2.22;;;;;;;;;;5029376;28;20250;-70
2023/08/07 04:07:24;;;;;;;8.27;2.25;;;;;;;;;;5026103;28;20186;-70
2023/08/07 04:09:49;;;;;;;12.25;3.28;;;;;;;;;;5025035;28;20197;-71
2023/08/07 04:12:14;;;;;;;12.98;3.67;;;;;;;;;;5030917;28;20550;-71
2023/08/07 04:14:40;;;;;;;12.10;4.28;;;;;;;;;;5026240;28;20276;-70
2023/08/07 04:17:05;;;;;;;12.93;4.50;;;;;;;;;;5008369;28;20616;-70
2023/08/07 04:19:30;;;;;;;15.45;5.95;;;;;;;;;;5006028;28;20194;-71
2023/08/07 04:21:56;;;;;;;18.05;5.82;;;;;;;;;;5027910;28;20210;-70
2023/08/07 04:24:21;;;;;;;19.02;8.20;;;;;;;;;;5018141;28;20201;-72
2023/08/07 04:26:47;;;;;;;23.05;7.65;;;;;;;;;;5026038;28;20179;-73
2023/08/07 04:29:13;;;;;;;20.27;8.70;;;;;;;;;;5026107;28;20251;-71
2023/08/07 04:31:38;;;;;;;25.50;10.20;;;;;;;;;;5030154;28;20217;-72
2023/08/07 04:34:03;;;;;;;24.00;10.43;;;;;;;;;;5016772;28;20279;-71
2023/08/07 04:36:29;;;;;;;24.25;10.15;;;;;;;;;;5021086;28;20622;-71
2023/08/07 04:38:55;;;;;;;22.77;10.15;;;;;;;;;;5025819;28;20190;-71
2023/08/07 04:41:21;;;;;;;26.38;11.40;;;;;;;;;;5021552;28;20290;-71
2023/08/07 04:43:48;;;;;;;28.08;12.60;;;;;;;;;;5021105;28;20677;-70
2023/08/07 04:46:13;;;;;;;24.58;11.57;;;;;;;;;;5022668;28;20290;-70
2023/08/07 04:48:38;;;;;;;25.65;11.50;;;;;;;;;;5029663;28;20384;-70
2023/08/07 04:51:04;;;;;;;24.23;11.45;;;;;;;;;;5028958;28;20201;-70
2023/08/07 04:53:29;;;;;;;24.42;11.20;;;;;;;;;;5027943;28;20260;-70
2023/08/07 04:55:55;;;;;;;28.70;10.70;;;;;;;;;;5029415;28;20217;-70
2023/08/07 04:58:20;;;;;;;32.90;11.07;;;;;;;;;;5027337;28;20192;-70
2023/08/07 05:00:45;;;;;;;28.50;11.20;;;;;;;;;;5028445;28;20197;-70
2023/08/07 05:03:11;;;;;;;20.83;9.43;;;;;;;;;;5028043;28;20245;-70
2023/08/07 05:05:36;;;;;;;23.55;8.77;;;;;;;;;;5032999;28;20243;-70
2023/08/07 05:08:02;;;;;;;22.85;8.52;;;;;;;;;;5039412;28;20244;-69
2023/08/07 05:10:30;;;;;;;22.63;7.57;;;;;;;;;;5033573;28;20194;-69
2023/08/07 05:12:56;;;;;;;24.73;7.00;;;;;;;;;;5018461;28;20245;-70
2023/08/07 05:15:25;;;;;;;18.90;6.85;;;;;;;;;;5031487;28;20186;-70
2023/08/07 05:17:51;;;;;;;19.52;5.57;;;;;;;;;;5032571;28;20285;-70
2023/08/07 05:20:17;;;;;;;13.05;4.80;;;;;;;;;;5017989;28;20521;-70
2023/08/07 05:22:43;;;;;;;22.25;4.50;;;;;;;;;;5032762;28;20206;-70
2023/08/07 05:25:09;;;;;;;12.65;3.65;;;;;;;;;;5018822;28;20622;-70
2023/08/07 05:27:35;;;;;;;11.05;3.80;;;;;;;;;;5033613;28;20205;-69
2023/08/07 05:30:00;;;;;;;15.00;3.70;;;;;;;;;;5029299;28;20221;-70
2023/08/07 05:32:26;;;;;;;16.30;3.97;;;;;;;;;;5032497;28;20190;-71
2023/08/07 05:34:51;;;;;;;9.77;3.58;;;;;;;;;;5013015;28;20201;-70
2023/08/07 05:37:17;;;;;;;11.20;3.50;;;;;;;;;;5015362;28;20665;-71
2023/08/07 05:39:42;;;;;;;15.07;3.70;;;;;;;;;;5025359;28;20194;-70
2023/08/07 05:42:09;;;;;;;16.48;3.40;;;;;;;;;;5032351;28;20225;-71
2023/08/07 05:44:34;;;;;;;13.93;4.10;;;;;;;;;;5029693;28;20197;-70
2023/08/07 05:47:00;;;;;;;11.95;3.75;;;;;;;;;;5032638;28;20197;-70
2023/08/07 05:49:25;;;;;;;12.32;3.50;;;;;;;;;;5032545;28;20202;-70
2023/08/07 05:51:50;;;;;;;15.57;4.28;;;;;;;;;;5032990;28;20194;-70
2023/08/07 05:54:16;;;;;;;14.48;3.58;;;;;;;;;;5031591;28;20255;-70
2023/08/07 05:56:41;;;;;;;15.40;3.53;;;;;;;;;;5032142;28;20544;-71
2023/08/07 05:59:07;;;;;;;12.68;3.65;;;;;;;;;;5025113;28;20191;-69
2023/08/07 06:01:32;;;;;;;10.10;3.38;;;;;;;;;;5027046;28;20186;-69
2023/08/07 06:03:58;;;;;;;12.90;3.70;;;;;;;;;;5041333;28;20602;-69
2023/08/07 06:06:25;;;;;;;14.93;4.00;;;;;;;;;;5032151;28;20222;-69
2023/08/07 06:08:50;;;;;;;12.15;3.55;;;;;;;;;;5029643;28;20182;-69
2023/08/07 06:11:16;;;;;;;13.95;3.40;;;;;;;;;;5032505;28;20201;-70
2023/08/07 06:13:41;;;;;;;12.07;2.90;;;;;;;;;;5029791;28;20581;-69
2023/08/07 06:16:07;;;;;;;11.93;3.15;;;;;;;;;;5011746;28;20190;-70
2023/08/07 06:18:32;;;;;;;11.55;3.45;;;;;;;;;;5029936;28;20216;-69
2023/08/07 06:20:57;;;;;;;13.60;3.13;;;;;;;;;;5024030;28;20190;-70
2023/08/07 06:23:23;;;;;;;16.75;3.70;;;;;;;;;;5030814;28;20681;-69
2023/08/07 06:25:48;;;;;;;8.68;2.95;;;;;;;;;;5032609;28;20197;-69
2023/08/07 06:28:14;;;;;;;10.70;3.05;;;;;;;;;;5030223;28;20190;-69
2023/08/07 06:30:39;;;;;;;13.80;4.25;;;;;;;;;;5031513;28;20855;-69
2023/08/07 06:33:04;;;;;;;12.70;3.38;;;;;;;;;;5027891;28;20284;-69
2023/08/07 06:35:30;;;;;;;10.45;3.17;;;;;;;;;;5014349;28;20217;-70
2023/08/07 06:37:55;;;;;;;13.90;3.40;;;;;;;;;;5023226;28;20198;-70
2023/08/07 06:40:21;;;;;;;14.82;3.38;;;;;;;;;;5020846;28;20213;-69
2023/08/07 06:42:46;;;;;;;9.77;3.30;;;;;;;;;;5031925;28;20238;-69
2023/08/07 06:45:12;;;;;;;12.98;3.15;;;;;;;;;;5031764;28;20693;-69
2023/08/07 06:47:37;;;;;;;14.13;2.88;;;;;;;;;;5031539;28;20189;-69
2023/08/07 06:50:02;;;;;;;12.95;3.60;;;;;;;;;;5030389;28;20654;-69
2023/08/07 06:52:28;;;;;;;15.10;3.17;;;;;;;;;;5031847;28;20197;-71
2023/08/07 06:54:53;;;;;;;13.73;3.20;;;;;;;;;;5028802;28;20194;-70
2023/08/07 06:57:18;;;;;;;15.38;4.22;;;;;;;;;;5031867;28;20437;-70
2023/08/07 06:59:44;;;;;;;16.65;3.10;;;;;;;;;;5024834;28;20222;-70
2023/08/07 07:02:09;;;;;;;12.98;3.22;;;;;;;;;;5029936;28;20222;-71
2023/08/07 07:04:36;;;;;;;14.27;3.40;;;;;;;;;;5023703;28;20199;-76
2023/08/07 07:07:02;;;;;;;14.48;3.38;;;;;;;;;;5028994;28;20185;-76
2023/08/07 07:09:28;;;;;;;18.02;4.18;;;;;;;;;;5025088;28;20187;-77
2023/08/07 07:11:54;;;;;;;12.02;3.47;;;;;;;;;;5030978;28;20209;-74
2023/08/07 07:14:20;;;;;;;18.38;3.83;;;;;;;;;;5024556;28;20583;-76
2023/08/07 07:16:45;;;;;;;12.15;3.42;;;;;;;;;;5028821;28;20213;-77
2023/08/07 07:19:10;;;;;;;15.10;4.40;;;;;;;;;;5028807;28;20281;-74
2023/08/07 07:21:36;;;;;;;12.63;3.50;;;;;;;;;;5025889;28;20190;-75
2023/08/07 07:24:02;;;;;;;15.27;4.05;;;;;;;;;;5027338;28;20287;-70
2023/08/07 07:26:28;;;;;;;13.43;3.35;;;;;;;;;;5012765;28;20515;-72
2023/08/07 07:28:53;;;;;;;10.43;3.50;;;;;;;;;;5023798;28;20193;-77
2023/08/07 07:31:18;;;;;;;9.48;3.40;;;;;;;;;;5030879;28;20182;-73
2023/08/07 07:33:44;;;;;;;16.83;3.75;;;;;;;;;;5029397;28;20189;-74
2023/08/07 07:36:29;;;;;;;17.67;3.67;;;;;;;;;;5030422;28;20799;-70
2023/08/07 07:38:54;;;;;;;17.75;4.18;;;;;;;;;;5028824;28;20264;-70
2023/08/07 07:41:20;;;;;;;15.07;3.78;;;;;;;;;;5019466;28;20195;-70
2023/08/07 07:43:46;;;;;;;14.27;3.83;;;;;;;;;;5028478;28;20233;-71
2023/08/07 07:46:11;;;;;;;19.75;3.90;;;;;;;;;;5026639;28;20605;-71
2023/08/07 07:48:37;;;;;;;14.43;3.50;;;;;;;;;;5030717;28;20224;-70
2023/08/07 07:51:03;;;;;;;11.82;3.63;;;;;;;;;;5031008;28;20198;-70
2023/08/07 07:53:29;;;;;;;19.33;4.70;;;;;;;;;;5018953;28;20182;-70
2023/08/07 07:55:54;;;;;;;12.95;3.30;;;;;;;;;;5029625;28;20194;-71
2023/08/07 07:58:20;;;;;;;20.13;3.40;;;;;;;;;;5026667;28;20627;-72
2023/08/07 08:00:46;;;;;;;12.88;4.43;;;;;;;;;;5018860;28;20245;-71
2023/08/07 08:03:12;;;;;;;12.68;3.63;;;;;;;;;;5014373;28;20222;-74
2023/08/07 08:05:38;;;;;;;12.95;2.97;;;;;;;;;;5029166;28;20190;-71
2023/08/07 08:08:03;;;;;;;16.67;3.78;;;;;;;;;;5029521;28;20202;-70
2023/08/07 08:10:29;;;;;;;17.10;3.83;;;;;;;;;;5025649;28;20194;-70
2023/08/07 08:12:55;;;;;;;16.40;3.70;;;;;;;;;;5015833;28;20198;-70
2023/08/07 08:15:21;;;;;;;15.15;3.28;;;;;;;;;;5025465;28;20398;-72
2023/08/07 08:17:46;;;;;;;10.55;3.30;;;;;;;;;;5029971;28;20233;-70
2023/08/07 08:20:15;;;;;;;15.50;3.58;;;;;;;;;;5028523;28;20647;-71
2023/08/07 08:22:40;;;;;;;12.65;2.92;;;;;;;;;;5028695;28;20517;-70
2023/08/07 08:25:06;;;;;;;10.68;2.92;;;;;;;;;;5019978;28;20198;-76
2023/08/07 08:27:32;;;;;;;9.35;2.80;;;;;;;;;;5031060;28;20339;-78
2023/08/07 08:30:00;;;;;;;12.45;3.33;;;;;;;;;;5031142;28;20197;-80
2023/08/07 08:32:26;;;;;;;10.07;3.45;;;;;;;;;;5030484;28;20236;-71
2023/08/07 08:34:51;;;;;;;8.45;3.00;;;;;;;;;;5024670;28;20210;-73
2023/08/07 08:37:17;;;;;;;11.52;3.42;;;;;;;;;;5011811;28;20676;-72
2023/08/07 08:39:42;;;;;;;16.88;4.00;;;;;;;;;;5024786;28;20191;-72
2023/08/07 08:42:11;;;;;;;9.13;2.90;;;;;;;;;;5023658;28;20322;-70
2023/08/07 08:44:39;;;;;;;13.88;3.67;;;;;;;;;;5026161;28;20285;-72
2023/08/07 08:47:06;;;;;;;13.25;3.83;;;;;;;;;;5030460;28;20491;-71
2023/08/07 08:49:35;;;;;;;17.25;3.47;;;;;;;;;;5028086;28;20649;-70
2023/08/07 08:52:02;;;;;;;9.85;3.25;;;;;;;;;;5024787;28;20190;-72
2023/08/07 08:54:28;;;;;;;14.60;4.45;;;;;;;;;;5044605;28;20205;-70
2023/08/07 08:56:56;;;;;;;12.90;3.50;;;;;;;;;;5028620;28;20178;-72
2023/08/07 08:59:22;;;;;;;14.52;4.05;;;;;;;;;;5029897;28;20205;-74
2023/08/07 09:01:49;;;;;;;14.25;3.05;;;;;;;;;;5023716;28;20195;-71
2023/08/07 09:04:15;;;;;;;11.15;3.85;;;;;;;;;;5008724;28;20213;-71
2023/08/07 09:06:41;;;;;;;13.63;3.50;;;;;;;;;;5026838;28;20658;-72
2023/08/07 09:09:08;;;;;;;12.32;3.40;;;;;;;;;;5029227;28;20210;-72
2023/08/07 09:11:34;;;;;;;11.25;2.83;;;;;;;;;;5016250;28;20558;-71
2023/08/07 09:14:02;;;;;;;12.82;3.20;;;;;;;;;;5029845;28;20183;-71
2023/08/07 09:16:28;;;;;;;15.23;3.10;;;;;;;;;;5028568;28;20259;-72
2023/08/07 09:18:55;;;;;;;8.80;3.05;;;;;;;;;;5024853;28;20186;-74
2023/08/07 09:21:21;;;;;;;12.02;3.45;;;;;;;;;;5018941;28;20201;-79
2023/08/07 09:23:46;;;;;;;11.88;3.55;;;;;;;;;;5029422;28;20296;-78
2023/08/07 09:26:12;;;;;;;21.45;4.57;;;;;;;;;;5031153;28;20182;-77
2023/08/07 09:28:38;;;;;;;15.88;3.33;;;;;;;;;;5027305;28;20195;-77
2023/08/07 09:31:06;;;;;;;19.83;4.47;;;;;;;;;;5013036;28;20201;-76
2023/08/07 09:33:31;;;;;;;12.73;3.80;;;;;;;;;;5028467;28;20170;-76
2023/08/07 09:35:58;;;;;;;17.50;4.00;;;;;;;;;;5025738;28;20311;-77
2023/08/07 09:38:27;;;;;;;16.00;3.30;;;;;;;;;;5029635;28;20190;-72
2023/08/07 09:40:52;;;;;;;11.73;3.20;;;;;;;;;;5029075;28;20194;-77
2023/08/07 09:43:22;;;;;;;15.27;3.63;;;;;;;;;;5027891;28;20291;-73
2023/08/07 09:45:50;;;;;;;16.30;3.45;;;;;;;;;;5028693;28;20209;-72
2023/08/07 09:48:24;;;;;;;14.18;3.33;;;;;;;;;;5026374;28;20679;-75
2023/08/07 09:50:50;;;;;;;7.03;2.40;;;;;;;;;;5023403;28;20277;-71
2023/08/07 09:53:16;;;;;;;11.80;2.50;;;;;;;;;;5024838;28;20400;-73
2023/08/07 09:55:41;;;;;;;12.15;2.30;;;;;;;;;;5024049;28;20265;-73
2023/08/07 09:58:08;;;;;;;12.10;2.92;;;;;;;;;;5011428;28;20257;-71
2023/08/07 10:00:35;;;;;;;13.90;3.03;;;;;;;;;;5025433;28;20187;-70
2023/08/07 10:03:02;;;;;;;9.15;2.28;;;;;;;;;;5025181;28;20210;-71
2023/08/07 10:05:27;;;;;;;6.85;1.95;;;;;;;;;;5013750;28;20198;-72
2023/08/07 10:07:54;;;;;;;7.88;2.38;;;;;;;;;;5032704;28;20190;-72
2023/08/07 10:10:20;;;;;;;9.10;2.33;;;;;;;;;;5028829;28;20183;-72
2023/08/07 10:12:47;;;;;;;7.80;2.25;;;;;;;;;;5026064;28;20509;-73
2023/08/07 10:15:14;;;;;;;11.80;2.15;;;;;;;;;;5025448;28;20267;-72
2023/08/07 10:17:40;;;;;;;6.22;2.28;;;;;;;;;;5031182;28;20677;-72
2023/08/07 10:20:07;;;;;;;11.23;2.42;;;;;;;;;;5010379;28;20187;-71
2023/08/07 10:22:37;;;;;;;5.88;1.95;;;;;;;;;;5021042;28;20218;-71
2023/08/07 10:25:03;;;;;;;9.02;1.48;;;;;;;;;;5028674;28;20182;-71
2023/08/07 10:27:32;;;;;;;5.18;2.33;;;;;;;;;;5031577;28;20201;-71
2023/08/07 10:30:01;;;;;;;7.55;2.28;;;;;;;;;;5029145;28;20185;-72
2023/08/07 10:32:27;;;;;;;7.00;1.83;;;;;;;;;;5011772;28;20685;-72
2023/08/07 10:34:53;;;;;;;6.13;1.60;;;;;;;;;;5025571;28;20186;-73
2023/08/07 10:37:34;;;;;;;6.20;1.92;;;;;;;;;;5007247;28;20205;-73
2023/08/07 10:40:09;;;;;;;7.05;1.95;;;;;;;;;;5030120;28;20194;-73
2023/08/07 10:42:57;;;;;;;4.78;2.08;;;;;;;;;;5017623;28;20615;-73
2023/08/07 10:45:24;;;;;;;6.05;1.67;;;;;;;;;;5040434;28;20205;-73
2023/08/07 10:48:04;;;;;;;7.70;2.08;;;;;;;;;;5029816;28;20579;-72
2023/08/07 10:50:31;;;;;;;9.10;2.95;;;;;;;;;;5027801;28;20187;-73
2023/08/07 10:53:00;;;;;;;10.35;2.25;;;;;;;;;;5025729;28;20618;-71
2023/08/07 10:55:26;;;;;;;9.95;2.40;;;;;;;;;;5032223;28;20667;-72
2023/08/07 10:57:51;;;;;;;4.20;2.08;;;;;;;;;;5031818;28;20305;-70
2023/08/07 11:00:17;;;;;;;9.93;2.22;;;;;;;;;;5030019;28;20306;-71
2023/08/07 11:02:43;;;;;;;8.05;2.20;;;;;;;;;;5029955;28;20210;-71
2023/08/07 11:05:08;;;;;;;11.60;2.65;;;;;;;;;;5031550;28;20560;-71
2023/08/07 11:07:34;;;;;;;5.72;2.00;;;;;;;;;;5021693;28;20214;-73
2023/08/07 11:09:59;;;;;;;11.07;2.47;;;;;;;;;;5019531;28;20217;-72
2023/08/07 11:12:26;;;;;;;9.48;2.40;;;;;;;;;;5013475;28;20843;-72
2023/08/07 11:14:52;;;;;;;8.70;2.10;;;;;;;;;;5029873;28;20229;-71
2023/08/07 11:17:18;;;;;;;10.43;2.17;;;;;;;;;;5014950;28;20559;-72
2023/08/07 11:19:46;;;;;;;4.85;2.08;;;;;;;;;;5027042;28;20186;-69
2023/08/07 11:22:12;;;;;;;7.60;2.25;;;;;;;;;;5025432;28;20218;-71
2023/08/07 11:24:37;;;;;;;8.00;1.98;;;;;;;;;;5029645;28;20684;-70
2023/08/07 11:27:03;;;;;;;8.52;1.60;;;;;;;;;;5022326;28;20189;-71
2023/08/07 11:29:30;;;;;;;6.30;2.10;;;;;;;;;;5020336;28;20183;-71
2023/08/07 11:31:56;;;;;;;9.88;2.47;;;;;;;;;;5015241;28;20232;-73
2023/08/07 11:34:22;;;;;;;7.93;2.22;;;;;;;;;;5030374;28;20213;-69
2023/08/07 11:36:48;;;;;;;7.38;2.15;;;;;;;;;;5020702;28;20248;-71
2023/08/07 11:39:13;;;;;;;9.88;1.92;;;;;;;;;;5028242;28;20277;-70
2023/08/07 11:41:40;;;;;;;9.00;2.35;;;;;;;;;;5020936;28;20273;-72
2023/08/07 11:44:07;;;;;;;4.80;2.08;;;;;;;;;;5030476;28;20293;-71
2023/08/07 11:46:33;;;;;;;6.38;2.08;;;;;;;;;;5028872;28;20617;-71
2023/08/07 11:48:59;;;;;;;9.98;2.20;;;;;;;;;;5030273;28;20271;-71
2023/08/07 11:51:24;;;;;;;8.05;2.40;;;;;;;;;;5025923;28;20247;-70
2023/08/07 11:53:50;;;;;;;7.65;2.10;;;;;;;;;;5037975;28;20178;-69
2023/08/07 11:56:16;;;;;;;8.23;2.60;;;;;;;;;;5024826;28;20218;-71
2023/08/07 11:58:52;;;;;;;13.02;2.33;;;;;;;;;;5016463;28;20193;-71
2023/08/07 12:01:20;;;;;;;11.77;2.75;;;;;;;;;;5024148;28;20194;-71
2023/08/07 12:04:15;;;;;;;8.43;2.13;;;;;;;;;;5029621;28;20214;-69
2023/08/07 12:06:56;;;;;;;7.65;1.90;;;;;;;;;;4997906;28;20199;-71
2023/08/07 12:09:21;;;;;;;10.48;1.90;;;;;;;;;;5013388;28;20677;-71
2023/08/07 12:11:46;;;;;;;10.90;2.42;;;;;;;;;;5028834;28;20191;-72
2023/08/07 12:14:17;;;;;;;12.52;2.25;;;;;;;;;;5029734;28;20224;-71
2023/08/07 12:16:45;;;;;;;7.88;2.15;;;;;;;;;;5028707;28;20190;-71
2023/08/07 12:19:11;;;;;;;6.75;2.08;;;;;;;;;;5027873;28;20186;-70
2023/08/07 12:21:38;;;;;;;5.90;2.00;;;;;;;;;;5024658;28;20544;-72
2023/08/07 12:24:06;;;;;;;4.82;2.00;;;;;;;;;;5007667;28;20211;-70
2023/08/07 12:26:32;;;;;;;9.35;2.28;;;;;;;;;;5019677;28;20558;-68
2023/08/07 12:28:57;;;;;;;12.73;2.85;;;;;;;;;;5028093;28;20186;-71
2023/08/07 12:31:23;;;;;;;8.18;2.03;;;;;;;;;;5025053;28;20187;-76
2023/08/07 12:33:48;;;;;;;7.40;2.13;;;;;;;;;;5029440;28;20297;-71
2023/08/07 12:36:14;;;;;;;5.05;1.80;;;;;;;;;;5028334;28;20201;-70
2023/08/07 12:38:40;;;;;;;9.43;1.70;;;;;;;;;;5025466;28;20236;-72
2023/08/07 12:41:05;;;;;;;5.53;1.85;;;;;;;;;;5028662;28;20577;-72
2023/08/07 12:43:31;;;;;;;5.35;1.98;;;;;;;;;;5024069;28;20553;-71
2023/08/07 12:45:56;;;;;;;6.88;2.35;;;;;;;;;;5029447;28;20595;-72
2023/08/07 12:48:22;;;;;;;8.48;1.70;;;;;;;;;;5028233;28;20203;-72
2023/08/07 12:50:47;;;;;;;8.55;2.10;;;;;;;;;;5018961;28;20500;-71
2023/08/07 12:53:12;;;;;;;3.70;1.60;;;;;;;;;;5008739;28;20280;-72
2023/08/07 12:55:38;;;;;;;4.45;1.58;;;;;;;;;;5021285;28;20261;-70
2023/08/07 12:58:03;;;;;;;4.88;1.65;;;;;;;;;;5022988;28;20190;-72
2023/08/07 13:00:29;;;;;;;4.78;1.40;;;;;;;;;;5029477;28;20277;-70
2023/08/07 13:02:55;;;;;;;5.10;1.58;;;;;;;;;;5025945;28;20215;-73
2023/08/07 13:05:21;;;;;;;5.32;1.58;;;;;;;;;;5022412;28;20651;-70
2023/08/07 13:07:47;;;;;;;5.43;1.60;;;;;;;;;;5013373;28;20622;-70
2023/08/07 13:10:15;;;;;;;3.83;1.35;;;;;;;;;;5026314;28;20205;-70
2023/08/07 13:12:42;;;;;;;5.65;1.38;;;;;;;;;;5011647;28;20649;-75
2023/08/07 13:15:12;;;;;;;7.65;2.10;;;;;;;;;;5027984;28;20270;-71
2023/08/07 13:17:38;;;;;;;4.30;1.80;;;;;;;;;;5028806;28;20259;-72
2023/08/07 13:20:07;;;;;;;7.40;1.98;;;;;;;;;;5009564;28;20288;-71
2023/08/07 13:22:51;;;;;;;5.55;1.63;;;;;;;;;;5021039;28;20589;-71
2023/08/07 13:25:16;;;;;;;6.75;2.00;;;;;;;;;;5029458;28;20275;-71
2023/08/07 13:27:41;;;;;;;6.03;2.00;;;;;;;;;;5031537;28;20190;-71
2023/08/07 13:30:08;;;;;;;6.03;1.77;;;;;;;;;;5028432;28;20293;-72
2023/08/07 13:32:33;;;;;;;4.80;1.55;;;;;;;;;;5035892;28;20229;-73
2023/08/07 13:34:59;;;;;;;8.80;2.10;;;;;;;;;;5035450;28;20272;-71
2023/08/07 13:37:24;;;;;;;6.53;1.80;;;;;;;;;;5031686;28;20193;-72
2023/08/07 13:39:52;;;;;;;8.77;2.00;;;;;;;;;;5032404;28;20284;-72
2023/08/07 13:42:17;;;;;;;6.38;2.17;;;;;;;;;;5032237;28;20266;-71
2023/08/07 13:44:43;;;;;;;5.57;1.80;;;;;;;;;;5032632;28;20217;-70
2023/08/07 13:47:10;;;;;;;7.25;1.90;;;;;;;;;;5024400;28;20252;-70
2023/08/07 13:49:35;;;;;;;5.80;1.50;;;;;;;;;;5028035;28;20190;-71
2023/08/07 13:52:01;;;;;;;3.92;1.55;;;;;;;;;;5027482;28;20249;-71
2023/08/07 13:54:26;;;;;;;3.22;1.27;;;;;;;;;;5015934;28;20198;-71
2023/08/07 13:56:52;;;;;;;3.38;1.35;;;;;;;;;;5030057;28;20189;-70
2023/08/07 13:59:17;;;;;;;6.22;1.70;;;;;;;;;;5032241;28;20198;-70
2023/08/07 14:01:43;;;;;;;5.35;2.00;;;;;;;;;;5026675;28;20186;-73
2023/08/07 14:04:08;;;;;;;7.95;1.73;;;;;;;;;;5030432;28;20220;-71
2023/08/07 14:06:34;;;;;;;5.60;2.20;;;;;;;;;;5031476;28;20189;-71
2023/08/07 14:08:59;;;;;;;10.85;1.95;;;;;;;;;;5022110;28;20644;-72
2023/08/07 14:11:30;;;;;;;8.20;2.05;;;;;;;;;;5029348;28;20195;-72
2023/08/07 14:13:56;;;;;;;7.93;2.00;;;;;;;;;;5020838;28;20284;-71
2023/08/07 14:16:22;;;;;;;5.72;1.90;;;;;;;;;;5015831;28;20241;-70
2023/08/07 14:18:47;;;;;;;7.63;2.03;;;;;;;;;;5019572;28;20221;-70
2023/08/07 14:21:12;;;;;;;6.75;1.67;;;;;;;;;;5020416;28;20526;-69
2023/08/07 14:23:38;;;;;;;6.47;1.85;;;;;;;;;;5024496;28;20225;-70
2023/08/07 14:26:03;;;;;;;10.30;2.00;;;;;;;;;;5029559;28;20684;-71
2023/08/07 14:28:29;;;;;;;5.70;1.90;;;;;;;;;;5019984;28;20205;-68
2023/08/07 14:30:58;;;;;;;6.72;1.80;;;;;;;;;;5042834;28;20273;-71